Surface observations / UK / EGBB

Quebec | Canada | USA | France | UK | Europe | Elsewhere

Display: Info & Location for EGBB | Help decoding METAR

EGBB BIRMINGHAM AIRPORT -- UK
Raw surface observations for station EGBB
EGBB 051420Z 27009KT 9999 BKN032 09/02 Q1036=
EGBB 051350Z 26009KT 9999 BKN029 OVC035 08/02 Q1037=
EGBB 051320Z 26007KT 210V290 9999 BKN027 OVC033 08/03 Q1037=
EGBB 051250Z 24007KT 200V280 9999 SCT022 OVC028 08/03 Q1037=
EGBB 051220Z 23007KT 200V270 9999 SCT022 SCT027 OVC033 08/04 Q1037=
EGBB 051150Z 22008KT 190V260 9999 SCT018 BKN024 OVC033 07/04 Q1037=
EGBB 051120Z 22008KT 170V250 9999 BKN035 08/03 Q1037=
EGBB 051050Z 22009KT 180V260 9999 BKN036 07/03 Q1037=
EGBB 051020Z 19006KT 160V240 9999 BKN039 06/03 Q1038=
EGBB 050950Z 22006KT 9999 BKN038 05/02 Q1038=
EGBB 050920Z AUTO 21008KT 180V240 9999 BKN038/// 05/02 Q1038=
EGBB 050850Z 22006KT 190V260 9999 BKN039 04/01 Q1038=
EGBB 050820Z 23005KT 190V260 9999 BKN037 03/01 Q1038=
EGBB 050750Z 22006KT 200V260 9999 FEW038 03/00 Q1038=
EGBB 050720Z 21006KT CAVOK 02/M00 Q1038=
EGBB 050650Z 22006KT CAVOK 02/M01 Q1038=
EGBB 050620Z 22007KT CAVOK 02/M00 Q1038=
EGBB 050550Z 22007KT CAVOK 02/00 Q1038=
EGBB 050520Z 22006KT CAVOK 02/00 Q1038=
EGBB 050450Z VRB03KT CAVOK 00/M01 Q1038=
EGBB 050420Z VRB03KT CAVOK 02/M00 Q1038=
EGBB 050350Z VRB03KT CAVOK 02/M00 Q1038=
EGBB 050320Z 14004KT CAVOK 00/M02 Q1038=
EGBB 050250Z 24004KT 200V270 CAVOK 03/M00 Q1038=
EGBB 050220Z AUTO VRB03KT 9999 NCD 03/M00 Q1038=
EGBB 050150Z AUTO VRB03KT 9999 NCD 03/M01 Q1038=
EGBB 050120Z AUTO 23004KT 200V270 9999 NCD 04/M01 Q1038=
EGBB 050050Z AUTO 25004KT 210V290 9999 NCD 03/M01 Q1038=
EGBB 050020Z 25006KT 210V270 CAVOK 03/M01 Q1038=
EGBB 042350Z 25005KT CAVOK 03/M01 Q1038=
EGBB 042320Z 27006KT CAVOK 03/M01 Q1038=
EGBB 042250Z 24005KT CAVOK 04/M01 Q1038=
EGBB 042220Z 25005KT CAVOK 04/M01 Q1037=
EGBB 042150Z 25006KT CAVOK 04/M01 Q1037=
EGBB 042120Z 26006KT CAVOK 04/M00 Q1037=
EGBB 042050Z 22003KT CAVOK 04/M00 Q1037=
EGBB 042020Z 22003KT CAVOK 04/M00 Q1036=
EGBB 041950Z 00000KT CAVOK 04/M00 Q1036=
EGBB 041920Z 31006KT CAVOK 05/00 Q1036=
EGBB 041850Z 33007KT CAVOK 05/M00 Q1035=
EGBB 041820Z 32009KT CAVOK 06/00 Q1035=
EGBB 041750Z 32010KT CAVOK 07/00 Q1034=
EGBB 041720Z 31014KT CAVOK 08/M00 Q1034=
EGBB 041650Z 32015KT CAVOK 08/M01 Q1033=
EGBB 041620Z 32016KT 9999 FEW036 08/M00 Q1033=